Kodiak, AK

12:20 AM AKST on November 26, 2014 (GMT -0900)
Bob Plyler on Selief Lane | Change Station
CLOSE
Current Station
Personal Weather Station
Location: Kodiak, AK
Elevation: 115 ft
Nearby Weather Stations

Elev 115 ft 57.80 °N, 152.39 °W | Updated 1 second ago

Scattered Clouds
Scattered Clouds
32.0 °F
Feels Like 32 °F
N
0.0
Wind Variable Wind from SE
Gusts 0.0 mph

Today
High -- | Low -- °F
--% Chance of Precip.
Yesterday
High -- | Low -- °F
Precip. -- in
9:19 AM 4:34 PM
Waxing Crescent, 18% visible
Pressure 30.33 in
Visibility 10.0 miles
Clouds Scattered Clouds 1500 ft
Windchill 32 °F
Dew Point 30 °F
Humidity 92%
Rainfall 0.00 in
Snow Depth Not available.
UV 0 out of 12
Pollen Not available.
Air Quality Not available.
Flu Activity Not available.
METAR PADQ 260853Z 26004KT 10SM SCT015 M02/M03 A3033 RMK AO2 SLP271 T10171028 400501022 51008

More Conditions Fewer Conditions

Pressure 30.33 in
Visibility 10.0 miles
Clouds Scattered Clouds 1500 ft
Windchill 32 °F
Dew Point 30 °F
Humidity 92%
Rainfall 0.00 in
Snow Depth Not available.
UV 0 out of 12
Pollen Not available.
Air Quality Not available.
Flu Activity Not available.
METAR PADQ 260853Z 26004KT 10SM SCT015 M02/M03 A3033 RMK AO2 SLP271 T10171028 400501022 51008

More Conditions Fewer Conditions

10-Day Weather Forecast

Almanac

Astronomy

Nov. 26, 2014 Rise Set
Actual Time
Civil Twilight
Nautical Twilight
Astronomical Twilight
Moon
Length of Visible Light
Length of Day
Tomorrow will be .
, % of the Moon is Illuminated

Today's Extremes

State Highs State Lows

Community

WunderPhotos

Upload Photos

1,773,702 photos uploaded!

WunderBlogs® & News

Nearby

Air Quality

  Air Quality AQ Index Pollutant
Not available.

Snow Depth

Station Depth Elevation

Earthquake Activity

City Distance Mag. Time & Date
Minimum magnitude displayed is 2.5.

Coastal Water Temperatures

Place Temperature

Nearby Weather Stations